sensor_id;sensor_type;location;lat;lon;timestamp;P1;durP1;ratioP1;P2;durP2;ratioP2
56381;SDS011;50261;51.150;4.470;2023-06-14T00:01:46;9.23;;;5.25;;
56381;SDS011;50261;51.150;4.470;2023-06-14T00:04:12;10.43;;;5.38;;
56381;SDS011;50261;51.150;4.470;2023-06-14T00:06:38;11.10;;;5.55;;
56381;SDS011;50261;51.150;4.470;2023-06-14T00:09:04;8.25;;;5.30;;
56381;SDS011;50261;51.150;4.470;2023-06-14T00:11:30;9.43;;;5.82;;
56381;SDS011;50261;51.150;4.470;2023-06-14T00:13:56;7.45;;;5.15;;
56381;SDS011;50261;51.150;4.470;2023-06-14T00:16:22;8.45;;;5.53;;
56381;SDS011;50261;51.150;4.470;2023-06-14T00:18:48;8.07;;;5.40;;
56381;SDS011;50261;51.150;4.470;2023-06-14T00:21:13;8.75;;;5.32;;
56381;SDS011;50261;51.150;4.470;2023-06-14T00:23:39;10.27;;;4.93;;
56381;SDS011;50261;51.150;4.470;2023-06-14T00:26:05;8.93;;;4.97;;
56381;SDS011;50261;51.150;4.470;2023-06-14T00:28:31;8.00;;;5.60;;
56381;SDS011;50261;51.150;4.470;2023-06-14T00:30:56;9.15;;;5.53;;
56381;SDS011;50261;51.150;4.470;2023-06-14T00:33:22;8.73;;;6.32;;
56381;SDS011;50261;51.150;4.470;2023-06-14T00:35:48;7.80;;;5.85;;
56381;SDS011;50261;51.150;4.470;2023-06-14T00:38:13;8.50;;;5.60;;
56381;SDS011;50261;51.150;4.470;2023-06-14T00:40:39;6.57;;;5.50;;
56381;SDS011;50261;51.150;4.470;2023-06-14T00:43:05;9.05;;;6.30;;
56381;SDS011;50261;51.150;4.470;2023-06-14T00:45:31;10.93;;;6.50;;
56381;SDS011;50261;51.150;4.470;2023-06-14T00:48:01;7.55;;;6.32;;
56381;SDS011;50261;51.150;4.470;2023-06-14T00:50:28;11.25;;;6.13;;
56381;SDS011;50261;51.150;4.470;2023-06-14T00:52:55;8.35;;;6.00;;
56381;SDS011;50261;51.150;4.470;2023-06-14T00:55:21;8.65;;;5.72;;
56381;SDS011;50261;51.150;4.470;2023-06-14T00:57:47;10.35;;;6.60;;
56381;SDS011;50261;51.150;4.470;2023-06-14T01:00:13;8.15;;;6.10;;
56381;SDS011;50261;51.150;4.470;2023-06-14T01:02:39;9.38;;;5.78;;
56381;SDS011;50261;51.150;4.470;2023-06-14T01:05:08;8.13;;;5.38;;
56381;SDS011;50261;51.150;4.470;2023-06-14T01:10:12;11.55;;;6.00;;
56381;SDS011;50261;51.150;4.470;2023-06-14T01:15:15;12.85;;;6.25;;
56381;SDS011;50261;51.150;4.470;2023-06-14T01:17:41;11.55;;;6.00;;
56381;SDS011;50261;51.150;4.470;2023-06-14T01:20:10;9.40;;;5.72;;
56381;SDS011;50261;51.150;4.470;2023-06-14T01:22:52;7.35;;;5.40;;
56381;SDS011;50261;51.150;4.470;2023-06-14T01:25:18;6.60;;;5.65;;
56381;SDS011;50261;51.150;4.470;2023-06-14T01:27:52;7.40;;;5.70;;
56381;SDS011;50261;51.150;4.470;2023-06-14T01:30:18;9.77;;;6.03;;
56381;SDS011;50261;51.150;4.470;2023-06-14T01:32:45;12.45;;;5.82;;
56381;SDS011;50261;51.150;4.470;2023-06-14T01:35:12;12.55;;;6.00;;
56381;SDS011;50261;51.150;4.470;2023-06-14T01:37:37;9.15;;;5.75;;
56381;SDS011;50261;51.150;4.470;2023-06-14T01:40:04;8.27;;;5.78;;
56381;SDS011;50261;51.150;4.470;2023-06-14T01:42:32;8.73;;;6.25;;
56381;SDS011;50261;51.150;4.470;2023-06-14T01:44:59;7.78;;;5.90;;
56381;SDS011;50261;51.150;4.470;2023-06-14T01:47:27;7.53;;;5.75;;
56381;SDS011;50261;51.150;4.470;2023-06-14T01:49:53;9.60;;;5.95;;
56381;SDS011;50261;51.150;4.470;2023-06-14T01:52:19;11.10;;;6.03;;
56381;SDS011;50261;51.150;4.470;2023-06-14T01:54:44;8.95;;;6.00;;
56381;SDS011;50261;51.150;4.470;2023-06-14T01:57:11;7.40;;;5.95;;
56381;SDS011;50261;51.150;4.470;2023-06-14T01:59:37;11.55;;;5.80;;
56381;SDS011;50261;51.150;4.470;2023-06-14T02:02:03;8.77;;;5.50;;
56381;SDS011;50261;51.150;4.470;2023-06-14T02:04:31;8.95;;;5.22;;
56381;SDS011;50261;51.150;4.470;2023-06-14T02:06:57;7.03;;;5.35;;
56381;SDS011;50261;51.150;4.470;2023-06-14T02:09:22;10.23;;;6.18;;
56381;SDS011;50261;51.150;4.470;2023-06-14T02:11:49;6.68;;;5.38;;
56381;SDS011;50261;51.150;4.470;2023-06-14T02:14:14;8.73;;;5.30;;
56381;SDS011;50261;51.150;4.470;2023-06-14T02:16:42;7.88;;;5.15;;
56381;SDS011;50261;51.150;4.470;2023-06-14T02:19:15;10.27;;;5.70;;
56381;SDS011;50261;51.150;4.470;2023-06-14T02:21:41;7.25;;;5.28;;
56381;SDS011;50261;51.150;4.470;2023-06-14T02:24:07;8.65;;;5.28;;
56381;SDS011;50261;51.150;4.470;2023-06-14T02:26:33;10.10;;;5.35;;
56381;SDS011;50261;51.150;4.470;2023-06-14T02:28:59;8.13;;;5.45;;
56381;SDS011;50261;51.150;4.470;2023-06-14T02:31:24;9.05;;;4.88;;
56381;SDS011;50261;51.150;4.470;2023-06-14T02:33:50;8.07;;;4.82;;
56381;SDS011;50261;51.150;4.470;2023-06-14T02:36:16;11.52;;;6.05;;
56381;SDS011;50261;51.150;4.470;2023-06-14T02:38:42;6.90;;;4.97;;
56381;SDS011;50261;51.150;4.470;2023-06-14T02:41:08;7.55;;;4.88;;
56381;SDS011;50261;51.150;4.470;2023-06-14T02:43:34;7.93;;;5.43;;
56381;SDS011;50261;51.150;4.470;2023-06-14T02:46:00;7.22;;;4.90;;
56381;SDS011;50261;51.150;4.470;2023-06-14T02:48:26;7.45;;;5.25;;
56381;SDS011;50261;51.150;4.470;2023-06-14T02:50:51;10.07;;;5.22;;
56381;SDS011;50261;51.150;4.470;2023-06-14T02:53:17;8.32;;;4.90;;
56381;SDS011;50261;51.150;4.470;2023-06-14T02:55:43;9.68;;;4.55;;
56381;SDS011;50261;51.150;4.470;2023-06-14T02:58:09;12.57;;;5.07;;
56381;SDS011;50261;51.150;4.470;2023-06-14T03:00:35;6.80;;;5.03;;
56381;SDS011;50261;51.150;4.470;2023-06-14T03:03:01;9.13;;;5.47;;
56381;SDS011;50261;51.150;4.470;2023-06-14T03:05:27;6.45;;;4.57;;
56381;SDS011;50261;51.150;4.470;2023-06-14T03:07:54;5.55;;;4.80;;
56381;SDS011;50261;51.150;4.470;2023-06-14T03:10:20;6.95;;;4.70;;
56381;SDS011;50261;51.150;4.470;2023-06-14T03:12:49;9.57;;;4.75;;
56381;SDS011;50261;51.150;4.470;2023-06-14T03:15:17;8.02;;;5.30;;
56381;SDS011;50261;51.150;4.470;2023-06-14T03:17:46;8.25;;;4.78;;
56381;SDS011;50261;51.150;4.470;2023-06-14T03:20:15;6.00;;;4.50;;
56381;SDS011;50261;51.150;4.470;2023-06-14T03:22:41;6.13;;;4.68;;
56381;SDS011;50261;51.150;4.470;2023-06-14T03:25:12;7.25;;;4.45;;
56381;SDS011;50261;51.150;4.470;2023-06-14T03:27:39;7.60;;;4.63;;
56381;SDS011;50261;51.150;4.470;2023-06-14T03:30:06;5.90;;;4.10;;
56381;SDS011;50261;51.150;4.470;2023-06-14T03:32:32;8.23;;;5.22;;
56381;SDS011;50261;51.150;4.470;2023-06-14T03:34:58;10.20;;;4.78;;
56381;SDS011;50261;51.150;4.470;2023-06-14T03:37:24;6.18;;;4.53;;
56381;SDS011;50261;51.150;4.470;2023-06-14T03:39:50;9.80;;;5.30;;
56381;SDS011;50261;51.150;4.470;2023-06-14T03:42:20;9.90;;;4.70;;
56381;SDS011;50261;51.150;4.470;2023-06-14T03:44:47;7.00;;;4.88;;
56381;SDS011;50261;51.150;4.470;2023-06-14T03:47:13;6.43;;;4.43;;
56381;SDS011;50261;51.150;4.470;2023-06-14T03:49:39;7.32;;;4.88;;
56381;SDS011;50261;51.150;4.470;2023-06-14T03:52:06;7.13;;;4.90;;
56381;SDS011;50261;51.150;4.470;2023-06-14T03:54:33;8.52;;;4.53;;
56381;SDS011;50261;51.150;4.470;2023-06-14T03:57:00;7.60;;;4.32;;
56381;SDS011;50261;51.150;4.470;2023-06-14T03:59:26;8.50;;;4.30;;
56381;SDS011;50261;51.150;4.470;2023-06-14T04:01:53;11.50;;;4.57;;
56381;SDS011;50261;51.150;4.470;2023-06-14T04:04:19;9.35;;;4.55;;
56381;SDS011;50261;51.150;4.470;2023-06-14T04:06:48;10.75;;;4.88;;
56381;SDS011;50261;51.150;4.470;2023-06-14T04:09:15;8.02;;;4.50;;
56381;SDS011;50261;51.150;4.470;2023-06-14T04:11:41;11.55;;;4.47;;
56381;SDS011;50261;51.150;4.470;2023-06-14T04:14:06;9.45;;;4.50;;
56381;SDS011;50261;51.150;4.470;2023-06-14T04:16:32;10.55;;;4.30;;
56381;SDS011;50261;51.150;4.470;2023-06-14T04:19:00;8.23;;;4.25;;
56381;SDS011;50261;51.150;4.470;2023-06-14T04:21:25;6.00;;;4.40;;
56381;SDS011;50261;51.150;4.470;2023-06-14T04:23:54;6.18;;;4.60;;
56381;SDS011;50261;51.150;4.470;2023-06-14T04:26:23;6.38;;;4.50;;
56381;SDS011;50261;51.150;4.470;2023-06-14T04:28:56;7.80;;;4.43;;
56381;SDS011;50261;51.150;4.470;2023-06-14T04:31:29;8.15;;;4.10;;
56381;SDS011;50261;51.150;4.470;2023-06-14T04:34:00;11.80;;;4.80;;
56381;SDS011;50261;51.150;4.470;2023-06-14T04:36:26;9.40;;;4.65;;
56381;SDS011;50261;51.150;4.470;2023-06-14T04:38:53;6.45;;;4.47;;
56381;SDS011;50261;51.150;4.470;2023-06-14T04:41:21;8.98;;;4.53;;
56381;SDS011;50261;51.150;4.470;2023-06-14T04:43:49;10.45;;;4.60;;
56381;SDS011;50261;51.150;4.470;2023-06-14T04:46:15;8.63;;;4.75;;
56381;SDS011;50261;51.150;4.470;2023-06-14T04:48:40;7.28;;;4.35;;
56381;SDS011;50261;51.150;4.470;2023-06-14T04:51:09;7.22;;;4.03;;
56381;SDS011;50261;51.150;4.470;2023-06-14T04:53:35;6.57;;;4.65;;
56381;SDS011;50261;51.150;4.470;2023-06-14T04:56:01;11.48;;;5.10;;
56381;SDS011;50261;51.150;4.470;2023-06-14T04:58:27;11.18;;;4.97;;
56381;SDS011;50261;51.150;4.470;2023-06-14T05:00:54;8.95;;;4.80;;
56381;SDS011;50261;51.150;4.470;2023-06-14T05:03:21;7.88;;;4.75;;
56381;SDS011;50261;51.150;4.470;2023-06-14T05:05:46;11.27;;;5.15;;
56381;SDS011;50261;51.150;4.470;2023-06-14T05:08:12;8.85;;;5.47;;
56381;SDS011;50261;51.150;4.470;2023-06-14T05:10:38;8.25;;;4.88;;
56381;SDS011;50261;51.150;4.470;2023-06-14T05:13:04;9.60;;;5.63;;
56381;SDS011;50261;51.150;4.470;2023-06-14T05:15:30;8.05;;;5.05;;
56381;SDS011;50261;51.150;4.470;2023-06-14T05:17:56;12.32;;;5.50;;
56381;SDS011;50261;51.150;4.470;2023-06-14T05:20:22;5.75;;;4.78;;
56381;SDS011;50261;51.150;4.470;2023-06-14T05:22:50;11.57;;;5.07;;
56381;SDS011;50261;51.150;4.470;2023-06-14T05:25:17;8.60;;;5.57;;
56381;SDS011;50261;51.150;4.470;2023-06-14T05:27:43;8.57;;;5.07;;
56381;SDS011;50261;51.150;4.470;2023-06-14T05:30:09;10.18;;;5.47;;
56381;SDS011;50261;51.150;4.470;2023-06-14T05:32:35;9.52;;;5.10;;
56381;SDS011;50261;51.150;4.470;2023-06-14T05:35:00;9.27;;;5.13;;
56381;SDS011;50261;51.150;4.470;2023-06-14T05:37:25;9.40;;;4.72;;
56381;SDS011;50261;51.150;4.470;2023-06-14T05:39:51;9.10;;;5.10;;
56381;SDS011;50261;51.150;4.470;2023-06-14T05:42:17;9.75;;;5.07;;
56381;SDS011;50261;51.150;4.470;2023-06-14T05:44:42;7.25;;;5.00;;
56381;SDS011;50261;51.150;4.470;2023-06-14T05:47:07;9.48;;;5.75;;
56381;SDS011;50261;51.150;4.470;2023-06-14T05:49:33;7.57;;;5.18;;
56381;SDS011;50261;51.150;4.470;2023-06-14T05:51:59;14.85;;;6.43;;
56381;SDS011;50261;51.150;4.470;2023-06-14T05:54:24;10.25;;;6.35;;
56381;SDS011;50261;51.150;4.470;2023-06-14T05:56:50;9.38;;;5.35;;
56381;SDS011;50261;51.150;4.470;2023-06-14T05:59:16;10.35;;;5.10;;
56381;SDS011;50261;51.150;4.470;2023-06-14T06:01:41;22.70;;;6.70;;
56381;SDS011;50261;51.150;4.470;2023-06-14T06:04:07;7.90;;;5.78;;
56381;SDS011;50261;51.150;4.470;2023-06-14T06:06:33;13.73;;;5.80;;
56381;SDS011;50261;51.150;4.470;2023-06-14T06:08:58;10.55;;;5.55;;
56381;SDS011;50261;51.150;4.470;2023-06-14T06:11:24;11.60;;;5.43;;
56381;SDS011;50261;51.150;4.470;2023-06-14T06:13:50;10.80;;;5.38;;
56381;SDS011;50261;51.150;4.470;2023-06-14T06:16:16;13.20;;;5.53;;
56381;SDS011;50261;51.150;4.470;2023-06-14T06:18:41;13.27;;;6.13;;
56381;SDS011;50261;51.150;4.470;2023-06-14T06:21:08;22.13;;;6.80;;
56381;SDS011;50261;51.150;4.470;2023-06-14T06:23:34;19.20;;;6.78;;
56381;SDS011;50261;51.150;4.470;2023-06-14T06:26:01;9.30;;;6.07;;
56381;SDS011;50261;51.150;4.470;2023-06-14T06:28:26;9.95;;;5.50;;
56381;SDS011;50261;51.150;4.470;2023-06-14T06:30:52;11.15;;;5.47;;
56381;SDS011;50261;51.150;4.470;2023-06-14T06:33:18;9.02;;;5.40;;
56381;SDS011;50261;51.150;4.470;2023-06-14T06:35:44;9.65;;;5.13;;
56381;SDS011;50261;51.150;4.470;2023-06-14T06:38:10;6.85;;;4.88;;
56381;SDS011;50261;51.150;4.470;2023-06-14T06:40:36;12.10;;;6.03;;
56381;SDS011;50261;51.150;4.470;2023-06-14T06:43:02;10.23;;;4.88;;
56381;SDS011;50261;51.150;4.470;2023-06-14T06:45:28;12.25;;;5.90;;
56381;SDS011;50261;51.150;4.470;2023-06-14T06:47:53;10.40;;;5.75;;
56381;SDS011;50261;51.150;4.470;2023-06-14T06:50:20;7.75;;;5.20;;
56381;SDS011;50261;51.150;4.470;2023-06-14T06:52:48;11.38;;;5.40;;
56381;SDS011;50261;51.150;4.470;2023-06-14T06:55:14;9.10;;;5.30;;
56381;SDS011;50261;51.150;4.470;2023-06-14T06:57:40;11.10;;;5.63;;
56381;SDS011;50261;51.150;4.470;2023-06-14T07:00:06;11.10;;;5.88;;
56381;SDS011;50261;51.150;4.470;2023-06-14T07:02:35;9.80;;;5.20;;
56381;SDS011;50261;51.150;4.470;2023-06-14T07:05:01;12.13;;;5.53;;
56381;SDS011;50261;51.150;4.470;2023-06-14T07:07:27;7.75;;;5.15;;
56381;SDS011;50261;51.150;4.470;2023-06-14T07:09:53;10.60;;;5.03;;
56381;SDS011;50261;51.150;4.470;2023-06-14T07:12:18;9.13;;;5.68;;
56381;SDS011;50261;51.150;4.470;2023-06-14T07:14:44;12.68;;;5.28;;
56381;SDS011;50261;51.150;4.470;2023-06-14T07:17:10;13.05;;;5.35;;
56381;SDS011;50261;51.150;4.470;2023-06-14T07:19:37;8.40;;;4.90;;
56381;SDS011;50261;51.150;4.470;2023-06-14T07:22:06;12.75;;;5.35;;
56381;SDS011;50261;51.150;4.470;2023-06-14T07:24:32;7.78;;;4.88;;
56381;SDS011;50261;51.150;4.470;2023-06-14T07:27:00;11.50;;;5.18;;
56381;SDS011;50261;51.150;4.470;2023-06-14T07:29:26;8.48;;;5.30;;
56381;SDS011;50261;51.150;4.470;2023-06-14T07:31:52;15.93;;;5.70;;
56381;SDS011;50261;51.150;4.470;2023-06-14T07:34:18;7.40;;;5.28;;
56381;SDS011;50261;51.150;4.470;2023-06-14T07:36:43;8.98;;;5.85;;
56381;SDS011;50261;51.150;4.470;2023-06-14T07:39:10;18.90;;;5.65;;
56381;SDS011;50261;51.150;4.470;2023-06-14T07:41:38;10.88;;;4.72;;
56381;SDS011;50261;51.150;4.470;2023-06-14T07:44:04;10.45;;;5.10;;
56381;SDS011;50261;51.150;4.470;2023-06-14T07:46:30;10.25;;;5.38;;
56381;SDS011;50261;51.150;4.470;2023-06-14T07:48:55;12.52;;;4.95;;
56381;SDS011;50261;51.150;4.470;2023-06-14T07:51:21;10.18;;;4.90;;
56381;SDS011;50261;51.150;4.470;2023-06-14T07:53:48;6.95;;;4.70;;
56381;SDS011;50261;51.150;4.470;2023-06-14T07:56:14;37.67;;;6.38;;
56381;SDS011;50261;51.150;4.470;2023-06-14T07:58:39;12.73;;;5.03;;
56381;SDS011;50261;51.150;4.470;2023-06-14T08:01:05;9.70;;;5.50;;
56381;SDS011;50261;51.150;4.470;2023-06-14T08:03:33;9.52;;;5.55;;
56381;SDS011;50261;51.150;4.470;2023-06-14T08:05:59;11.93;;;4.90;;
56381;SDS011;50261;51.150;4.470;2023-06-14T08:08:26;7.82;;;4.78;;
56381;SDS011;50261;51.150;4.470;2023-06-14T08:10:51;9.30;;;5.40;;
56381;SDS011;50261;51.150;4.470;2023-06-14T08:13:17;7.25;;;4.90;;
56381;SDS011;50261;51.150;4.470;2023-06-14T08:15:43;8.30;;;4.90;;
56381;SDS011;50261;51.150;4.470;2023-06-14T08:18:09;9.20;;;5.13;;
56381;SDS011;50261;51.150;4.470;2023-06-14T08:20:35;13.20;;;5.15;;
56381;SDS011;50261;51.150;4.470;2023-06-14T08:23:02;11.48;;;5.43;;
56381;SDS011;50261;51.150;4.470;2023-06-14T08:25:29;13.40;;;5.22;;
56381;SDS011;50261;51.150;4.470;2023-06-14T08:27:55;11.05;;;5.20;;
56381;SDS011;50261;51.150;4.470;2023-06-14T08:30:21;11.60;;;5.50;;
56381;SDS011;50261;51.150;4.470;2023-06-14T08:32:47;13.30;;;5.18;;
56381;SDS011;50261;51.150;4.470;2023-06-14T08:35:13;8.07;;;5.03;;
56381;SDS011;50261;51.150;4.470;2023-06-14T08:37:40;12.60;;;5.85;;
56381;SDS011;50261;51.150;4.470;2023-06-14T08:42:44;14.50;;;5.93;;
56381;SDS011;50261;51.150;4.470;2023-06-14T08:45:10;13.65;;;6.55;;
56381;SDS011;50261;51.150;4.470;2023-06-14T08:47:36;8.85;;;5.72;;
56381;SDS011;50261;51.150;4.470;2023-06-14T08:50:02;7.18;;;4.72;;
56381;SDS011;50261;51.150;4.470;2023-06-14T08:52:29;10.57;;;5.25;;
56381;SDS011;50261;51.150;4.470;2023-06-14T08:54:59;12.63;;;5.47;;
56381;SDS011;50261;51.150;4.470;2023-06-14T08:57:26;10.10;;;5.68;;
56381;SDS011;50261;51.150;4.470;2023-06-14T08:59:55;8.35;;;5.03;;
56381;SDS011;50261;51.150;4.470;2023-06-14T09:02:22;9.60;;;5.38;;
56381;SDS011;50261;51.150;4.470;2023-06-14T09:04:48;8.10;;;4.55;;
56381;SDS011;50261;51.150;4.470;2023-06-14T09:07:15;14.13;;;5.70;;
56381;SDS011;50261;51.150;4.470;2023-06-14T09:09:40;7.90;;;4.30;;
56381;SDS011;50261;51.150;4.470;2023-06-14T09:12:08;9.30;;;4.68;;
56381;SDS011;50261;51.150;4.470;2023-06-14T09:14:35;7.78;;;5.20;;
56381;SDS011;50261;51.150;4.470;2023-06-14T09:17:04;9.27;;;4.85;;
56381;SDS011;50261;51.150;4.470;2023-06-14T09:19:29;8.13;;;4.72;;
56381;SDS011;50261;51.150;4.470;2023-06-14T09:21:55;8.27;;;5.10;;
56381;SDS011;50261;51.150;4.470;2023-06-14T09:24:21;6.50;;;4.78;;
56381;SDS011;50261;51.150;4.470;2023-06-14T09:26:50;5.82;;;4.38;;
56381;SDS011;50261;51.150;4.470;2023-06-14T09:29:16;7.70;;;4.55;;
56381;SDS011;50261;51.150;4.470;2023-06-14T09:31:42;7.35;;;4.50;;
56381;SDS011;50261;51.150;4.470;2023-06-14T09:34:07;9.82;;;4.68;;
56381;SDS011;50261;51.150;4.470;2023-06-14T09:36:34;8.07;;;4.75;;
56381;SDS011;50261;51.150;4.470;2023-06-14T09:39:00;10.35;;;5.10;;
56381;SDS011;50261;51.150;4.470;2023-06-14T09:41:33;8.60;;;4.90;;
56381;SDS011;50261;51.150;4.470;2023-06-14T09:44:00;9.57;;;4.70;;
56381;SDS011;50261;51.150;4.470;2023-06-14T09:46:29;9.48;;;3.90;;
56381;SDS011;50261;51.150;4.470;2023-06-14T09:48:55;6.82;;;4.30;;
56381;SDS011;50261;51.150;4.470;2023-06-14T09:51:22;10.77;;;4.60;;
56381;SDS011;50261;51.150;4.470;2023-06-14T09:53:51;8.13;;;4.03;;
56381;SDS011;50261;51.150;4.470;2023-06-14T09:56:27;11.18;;;4.45;;
56381;SDS011;50261;51.150;4.470;2023-06-14T09:58:55;19.10;;;4.30;;
56381;SDS011;50261;51.150;4.470;2023-06-14T10:01:21;32.20;;;5.28;;
56381;SDS011;50261;51.150;4.470;2023-06-14T10:03:48;12.13;;;4.57;;
56381;SDS011;50261;51.150;4.470;2023-06-14T10:06:16;61.85;;;7.28;;
56381;SDS011;50261;51.150;4.470;2023-06-14T10:08:42;73.28;;;7.97;;
56381;SDS011;50261;51.150;4.470;2023-06-14T10:11:07;27.48;;;5.13;;
56381;SDS011;50261;51.150;4.470;2023-06-14T10:13:33;14.25;;;4.05;;
56381;SDS011;50261;51.150;4.470;2023-06-14T10:21:54;9.25;;;3.80;;
56381;SDS011;50261;51.150;4.470;2023-06-14T10:24:25;6.35;;;3.78;;
56381;SDS011;50261;51.150;4.470;2023-06-14T10:26:54;6.00;;;3.53;;
56381;SDS011;50261;51.150;4.470;2023-06-14T10:29:19;9.40;;;3.63;;
56381;SDS011;50261;51.150;4.470;2023-06-14T10:31:46;5.68;;;3.65;;
56381;SDS011;50261;51.150;4.470;2023-06-14T10:34:12;6.85;;;3.28;;
56381;SDS011;50261;51.150;4.470;2023-06-14T10:36:59;43.47;;;6.38;;
56381;SDS011;50261;51.150;4.470;2023-06-14T10:39:25;23.13;;;4.03;;
56381;SDS011;50261;51.150;4.470;2023-06-14T10:41:54;17.58;;;4.43;;
56381;SDS011;50261;51.150;4.470;2023-06-14T10:46:46;8.20;;;3.33;;
56381;SDS011;50261;51.150;4.470;2023-06-14T10:49:15;14.30;;;4.15;;
56381;SDS011;50261;51.150;4.470;2023-06-14T10:51:44;11.20;;;3.33;;
56381;SDS011;50261;51.150;4.470;2023-06-14T10:54:13;10.35;;;4.32;;
56381;SDS011;50261;51.150;4.470;2023-06-14T10:56:45;7.50;;;3.13;;
56381;SDS011;50261;51.150;4.470;2023-06-14T10:59:11;15.25;;;3.80;;
56381;SDS011;50261;51.150;4.470;2023-06-14T11:01:41;24.92;;;5.32;;
56381;SDS011;50261;51.150;4.470;2023-06-14T11:06:49;10.20;;;4.13;;
56381;SDS011;50261;51.150;4.470;2023-06-14T11:09:41;10.38;;;3.72;;
56381;SDS011;50261;51.150;4.470;2023-06-14T11:12:11;4.80;;;3.13;;
56381;SDS011;50261;51.150;4.470;2023-06-14T11:14:38;7.80;;;3.40;;
56381;SDS011;50261;51.150;4.470;2023-06-14T11:17:04;5.68;;;3.03;;
56381;SDS011;50261;51.150;4.470;2023-06-14T11:19:30;8.18;;;4.00;;
56381;SDS011;50261;51.150;4.470;2023-06-14T11:21:55;4.90;;;2.70;;
56381;SDS011;50261;51.150;4.470;2023-06-14T11:24:21;6.63;;;3.38;;
56381;SDS011;50261;51.150;4.470;2023-06-14T11:26:47;8.48;;;2.80;;
56381;SDS011;50261;51.150;4.470;2023-06-14T11:29:15;9.40;;;2.90;;
56381;SDS011;50261;51.150;4.470;2023-06-14T11:31:43;24.90;;;4.97;;
56381;SDS011;50261;51.150;4.470;2023-06-14T11:34:11;11.32;;;2.90;;
56381;SDS011;50261;51.150;4.470;2023-06-14T11:36:38;10.13;;;3.75;;
56381;SDS011;50261;51.150;4.470;2023-06-14T11:39:05;3.90;;;2.58;;
56381;SDS011;50261;51.150;4.470;2023-06-14T11:41:32;5.95;;;2.70;;
56381;SDS011;50261;51.150;4.470;2023-06-14T11:43:59;9.52;;;3.20;;
56381;SDS011;50261;51.150;4.470;2023-06-14T11:46:25;5.75;;;2.58;;
56381;SDS011;50261;51.150;4.470;2023-06-14T11:48:51;7.43;;;2.63;;
56381;SDS011;50261;51.150;4.470;2023-06-14T11:51:18;7.15;;;2.92;;
56381;SDS011;50261;51.150;4.470;2023-06-14T11:53:44;4.43;;;2.97;;
56381;SDS011;50261;51.150;4.470;2023-06-14T11:56:09;4.10;;;2.47;;
56381;SDS011;50261;51.150;4.470;2023-06-14T11:58:35;9.10;;;2.90;;
56381;SDS011;50261;51.150;4.470;2023-06-14T12:01:05;9.05;;;2.45;;
56381;SDS011;50261;51.150;4.470;2023-06-14T12:03:31;11.18;;;2.63;;
56381;SDS011;50261;51.150;4.470;2023-06-14T12:06:06;5.38;;;2.70;;
56381;SDS011;50261;51.150;4.470;2023-06-14T12:08:36;4.78;;;2.90;;
56381;SDS011;50261;51.150;4.470;2023-06-14T12:11:13;6.00;;;2.58;;
56381;SDS011;50261;51.150;4.470;2023-06-14T12:13:40;6.13;;;2.60;;
56381;SDS011;50261;51.150;4.470;2023-06-14T12:16:07;5.05;;;2.55;;
56381;SDS011;50261;51.150;4.470;2023-06-14T12:18:34;4.88;;;2.30;;
56381;SDS011;50261;51.150;4.470;2023-06-14T12:21:01;5.63;;;2.60;;
56381;SDS011;50261;51.150;4.470;2023-06-14T12:26:05;10.43;;;3.25;;
56381;SDS011;50261;51.150;4.470;2023-06-14T12:28:31;5.35;;;2.53;;
56381;SDS011;50261;51.150;4.470;2023-06-14T12:30:57;3.35;;;2.03;;
56381;SDS011;50261;51.150;4.470;2023-06-14T12:33:24;7.82;;;2.60;;
56381;SDS011;50261;51.150;4.470;2023-06-14T12:35:50;6.60;;;1.90;;
56381;SDS011;50261;51.150;4.470;2023-06-14T12:38:16;3.70;;;1.88;;
56381;SDS011;50261;51.150;4.470;2023-06-14T12:40:42;3.80;;;1.88;;
56381;SDS011;50261;51.150;4.470;2023-06-14T12:43:08;3.58;;;1.90;;
56381;SDS011;50261;51.150;4.470;2023-06-14T12:45:33;4.50;;;2.25;;
56381;SDS011;50261;51.150;4.470;2023-06-14T12:47:59;10.10;;;2.88;;
56381;SDS011;50261;51.150;4.470;2023-06-14T12:50:25;7.57;;;2.22;;
56381;SDS011;50261;51.150;4.470;2023-06-14T12:52:51;4.47;;;2.10;;
56381;SDS011;50261;51.150;4.470;2023-06-14T12:55:17;20.15;;;4.28;;
56381;SDS011;50261;51.150;4.470;2023-06-14T12:57:43;5.95;;;2.72;;
56381;SDS011;50261;51.150;4.470;2023-06-14T13:00:09;8.13;;;2.28;;
56381;SDS011;50261;51.150;4.470;2023-06-14T13:02:36;7.55;;;2.10;;
56381;SDS011;50261;51.150;4.470;2023-06-14T13:05:01;18.95;;;3.15;;
56381;SDS011;50261;51.150;4.470;2023-06-14T13:07:29;20.80;;;3.67;;
56381;SDS011;50261;51.150;4.470;2023-06-14T13:09:55;7.25;;;1.70;;
56381;SDS011;50261;51.150;4.470;2023-06-14T13:12:20;3.83;;;1.55;;
56381;SDS011;50261;51.150;4.470;2023-06-14T13:14:46;2.88;;;1.52;;
56381;SDS011;50261;51.150;4.470;2023-06-14T13:17:12;2.35;;;1.27;;
56381;SDS011;50261;51.150;4.470;2023-06-14T13:19:37;3.78;;;1.50;;
56381;SDS011;50261;51.150;4.470;2023-06-14T13:22:03;2.97;;;1.30;;
56381;SDS011;50261;51.150;4.470;2023-06-14T13:24:29;4.07;;;1.45;;
56381;SDS011;50261;51.150;4.470;2023-06-14T13:26:55;3.67;;;1.25;;
56381;SDS011;50261;51.150;4.470;2023-06-14T13:29:22;2.97;;;1.13;;
56381;SDS011;50261;51.150;4.470;2023-06-14T13:31:48;3.83;;;1.08;;
56381;SDS011;50261;51.150;4.470;2023-06-14T13:34:14;5.03;;;1.10;;
56381;SDS011;50261;51.150;4.470;2023-06-14T13:36:40;6.05;;;1.10;;
56381;SDS011;50261;51.150;4.470;2023-06-14T13:39:05;6.53;;;1.58;;
56381;SDS011;50261;51.150;4.470;2023-06-14T13:41:31;4.10;;;1.10;;
56381;SDS011;50261;51.150;4.470;2023-06-14T13:43:59;1.42;;;1.17;;
56381;SDS011;50261;51.150;4.470;2023-06-14T13:46:25;4.60;;;1.27;;
56381;SDS011;50261;51.150;4.470;2023-06-14T13:48:51;8.93;;;1.77;;
56381;SDS011;50261;51.150;4.470;2023-06-14T13:51:17;9.05;;;1.25;;
56381;SDS011;50261;51.150;4.470;2023-06-14T13:53:47;3.42;;;1.02;;
56381;SDS011;50261;51.150;4.470;2023-06-14T13:56:14;5.28;;;2.00;;
56381;SDS011;50261;51.150;4.470;2023-06-14T13:58:40;9.45;;;1.45;;
56381;SDS011;50261;51.150;4.470;2023-06-14T14:01:05;2.47;;;1.00;;
56381;SDS011;50261;51.150;4.470;2023-06-14T14:03:32;4.63;;;1.48;;
56381;SDS011;50261;51.150;4.470;2023-06-14T14:05:57;2.80;;;1.17;;
56381;SDS011;50261;51.150;4.470;2023-06-14T14:08:23;2.92;;;1.50;;
56381;SDS011;50261;51.150;4.470;2023-06-14T14:10:50;1.58;;;1.23;;
56381;SDS011;50261;51.150;4.470;2023-06-14T14:13:15;3.92;;;1.50;;
56381;SDS011;50261;51.150;4.470;2023-06-14T14:15:41;3.47;;;1.52;;
56381;SDS011;50261;51.150;4.470;2023-06-14T14:18:10;1.92;;;1.38;;
56381;SDS011;50261;51.150;4.470;2023-06-14T14:20:36;3.78;;;1.20;;
56381;SDS011;50261;51.150;4.470;2023-06-14T14:23:01;3.03;;;1.33;;
56381;SDS011;50261;51.150;4.470;2023-06-14T14:25:27;4.97;;;1.30;;
56381;SDS011;50261;51.150;4.470;2023-06-14T14:27:53;4.63;;;1.40;;
56381;SDS011;50261;51.150;4.470;2023-06-14T14:30:19;3.15;;;1.20;;
56381;SDS011;50261;51.150;4.470;2023-06-14T14:32:49;16.65;;;2.55;;
56381;SDS011;50261;51.150;4.470;2023-06-14T14:35:15;3.90;;;1.60;;
56381;SDS011;50261;51.150;4.470;2023-06-14T14:37:40;6.68;;;1.70;;
56381;SDS011;50261;51.150;4.470;2023-06-14T14:40:06;7.05;;;1.60;;
56381;SDS011;50261;51.150;4.470;2023-06-14T14:42:34;6.72;;;1.70;;
56381;SDS011;50261;51.150;4.470;2023-06-14T14:44:59;3.67;;;1.30;;
56381;SDS011;50261;51.150;4.470;2023-06-14T14:47:25;2.97;;;1.50;;
56381;SDS011;50261;51.150;4.470;2023-06-14T14:49:51;2.22;;;1.25;;
56381;SDS011;50261;51.150;4.470;2023-06-14T14:52:17;9.25;;;2.50;;
56381;SDS011;50261;51.150;4.470;2023-06-14T14:54:43;23.38;;;2.83;;
56381;SDS011;50261;51.150;4.470;2023-06-14T14:57:08;10.10;;;1.55;;
56381;SDS011;50261;51.150;4.470;2023-06-14T14:59:34;6.82;;;1.70;;
56381;SDS011;50261;51.150;4.470;2023-06-14T15:02:00;4.05;;;2.25;;